BIVM

Vestmannaeyjar Airport

Vestmannaeyjar, Iceland
METAR BIVM 171800Z 13023G49KT 080V200 3500 RA BR BKN002 OVC004 09/09 Q1008
Observed Flight Rules
Nov-17 @ 18:00 UTC (6 hours ago) Instrument Flight Rules
Wind Visibility Clouds Conditions
130° at 23 knots
 Gusting to 49 knots
3,492 meters
  • Broken at 200' AGL
  • Overcast at 400' AGL
  • Rain
  • Mist
Temperatures Readings
Current 9°C / 48°F
Dewpoint 9°C / 48°F
Humidity 100%
Altimeter 29.76" Hg
Pressure 1008 hPa
Elevation 124
METAR BIVM 171800Z 13023G49KT 080V200 3500 RA BR BKN002 OVC004 09/09 Q1008
Observed Flight Rules
Nov-17 @ 18:00 UTC
(6 hours ago)
LIFR
Wind Visibility
130° at 23 knots
 Gusting to 49 knots
3,492 meters
Clouds
  • Broken at 200' AGL
  • Overcast at 400' AGL
Conditions
  • Rain
  • Mist
Temperature Dewpoint
9°C / 48°F 9°C / 48°F
Humidity Altimeter Pressure
100% 29.76" Hg 1008 hPa